createdAt,value
2022-08-03T00:01:48.886Z,22.88
2022-08-03T00:04:15.267Z,22.89
2022-08-03T00:06:41.699Z,22.89
2022-08-03T00:09:08.390Z,22.86
2022-08-03T00:11:35.388Z,22.86
2022-08-03T00:14:01.817Z,22.85
2022-08-03T00:16:28.293Z,22.86
2022-08-03T00:18:55.035Z,22.86
2022-08-03T00:21:21.402Z,22.86
2022-08-03T00:23:52.300Z,22.85
2022-08-03T00:26:19.114Z,22.85
2022-08-03T00:28:45.556Z,22.84
2022-08-03T00:31:13.476Z,22.85
2022-08-03T00:33:59.101Z,22.85
2022-08-03T00:36:26.315Z,22.84
2022-08-03T00:38:52.682Z,22.84
2022-08-03T00:41:19.085Z,22.84
2022-08-03T00:43:45.688Z,22.83
2022-08-03T00:46:12.102Z,22.83
2022-08-03T00:48:38.493Z,22.83
2022-08-03T00:51:05.156Z,22.82
2022-08-03T00:53:32.014Z,22.82
2022-08-03T00:55:58.821Z,22.81
2022-08-03T00:58:25.329Z,22.81
2022-08-03T01:00:51.890Z,22.80
2022-08-03T01:03:18.362Z,22.81
2022-08-03T01:05:44.703Z,22.80
2022-08-03T01:08:34.489Z,22.80
2022-08-03T01:11:12.175Z,22.80
2022-08-03T01:14:01.314Z,22.79
2022-08-03T01:16:36.756Z,22.80
2022-08-03T01:19:22.218Z,22.79
2022-08-03T01:21:48.583Z,22.78
2022-08-03T01:24:24.722Z,22.78
2022-08-03T01:27:05.218Z,22.78
2022-08-03T01:29:50.420Z,22.78
2022-08-03T01:32:58.801Z,22.78
2022-08-03T01:35:06.648Z,22.77
2022-08-03T01:37:45.315Z,22.77
2022-08-03T01:40:13.408Z,22.77
2022-08-03T01:42:40.995Z,22.76
2022-08-03T01:45:08.924Z,22.74
2022-08-03T01:47:35.729Z,22.74
2022-08-03T01:50:03.286Z,22.74
2022-08-03T01:52:31.315Z,22.74
2022-08-03T01:54:58.418Z,22.74
2022-08-03T01:57:25.387Z,22.73
2022-08-03T01:59:52.476Z,22.74
2022-08-03T02:02:33.546Z,22.73
2022-08-03T02:05:01.336Z,22.73
2022-08-03T02:07:29.094Z,22.73
2022-08-03T02:09:55.825Z,22.73
2022-08-03T02:12:23.952Z,22.72
2022-08-03T02:14:50.658Z,22.71
2022-08-03T02:17:17.355Z,22.71
2022-08-03T02:19:44.549Z,22.71
2022-08-03T02:22:11.974Z,22.70
2022-08-03T02:24:38.717Z,22.70
2022-08-03T02:27:21.254Z,22.70
2022-08-03T02:29:50.972Z,22.70
2022-08-03T02:32:19.787Z,22.69
2022-08-03T02:34:47.649Z,22.69
2022-08-03T02:37:14.992Z,22.69
2022-08-03T02:39:42.901Z,22.68
2022-08-03T02:42:12.764Z,22.68
2022-08-03T02:44:41.592Z,22.68
2022-08-03T02:47:09.584Z,22.68
2022-08-03T02:49:50.777Z,22.68
2022-08-03T02:52:19.905Z,22.67
2022-08-03T02:54:46.718Z,22.68
2022-08-03T02:57:14.597Z,22.67
2022-08-03T02:59:42.610Z,22.67
2022-08-03T03:02:09.877Z,22.66
2022-08-03T03:04:36.827Z,22.66
2022-08-03T03:07:04.433Z,22.65
2022-08-03T03:09:40.353Z,22.65
2022-08-03T03:12:09.771Z,22.65
2022-08-03T03:14:36.492Z,22.66
2022-08-03T03:19:30.867Z,22.64
2022-08-03T03:21:58.868Z,22.64
2022-08-03T03:24:25.529Z,22.63
2022-08-03T03:26:52.290Z,22.62
2022-08-03T03:29:18.904Z,22.62
2022-08-03T03:31:45.574Z,22.62
2022-08-03T03:34:12.229Z,22.62
2022-08-03T03:36:39.043Z,22.63
2022-08-03T03:39:15.949Z,22.61
2022-08-03T03:41:43.348Z,22.61
2022-08-03T03:44:09.774Z,22.61
2022-08-03T03:46:36.990Z,22.61
2022-08-03T03:49:05.145Z,22.60
2022-08-03T03:51:31.768Z,22.60
2022-08-03T03:53:59.052Z,22.60
2022-08-03T03:56:25.842Z,22.59
2022-08-03T03:58:52.339Z,22.61
2022-08-03T04:01:19.148Z,22.58
2022-08-03T04:03:45.820Z,22.58
2022-08-03T04:06:31.337Z,22.58
2022-08-03T04:09:00.378Z,22.58
2022-08-03T04:11:30.295Z,22.57
2022-08-03T04:14:16.547Z,22.58
2022-08-03T04:16:46.213Z,22.57
2022-08-03T04:19:19.669Z,22.56
2022-08-03T04:21:51.218Z,22.56
2022-08-03T04:24:19.033Z,22.56
2022-08-03T04:26:50.846Z,22.54
2022-08-03T04:29:19.737Z,22.55
2022-08-03T04:31:46.768Z,22.56
2022-08-03T04:34:13.300Z,22.56
2022-08-03T04:36:44.254Z,22.55
2022-08-03T04:39:16.501Z,22.55
2022-08-03T04:42:08.277Z,22.54
2022-08-03T04:44:31.725Z,22.54
2022-08-03T04:46:58.375Z,22.54
2022-08-03T04:49:25.321Z,22.54
2022-08-03T04:51:52.693Z,22.54
2022-08-03T04:54:19.163Z,22.54
2022-08-03T04:56:45.604Z,22.53
2022-08-03T04:59:12.272Z,22.54
2022-08-03T05:01:39.915Z,22.54
2022-08-03T05:04:06.342Z,22.54
2022-08-03T05:06:32.733Z,22.52
2022-08-03T05:08:59.698Z,22.52
2022-08-03T05:11:26.147Z,22.51
2022-08-03T05:13:52.617Z,22.52
2022-08-03T05:16:19.051Z,22.53
2022-08-03T05:18:46.033Z,22.53
2022-08-03T05:21:14.498Z,22.53
2022-08-03T05:23:41.441Z,22.52
2022-08-03T05:26:07.853Z,22.52
2022-08-03T05:28:34.299Z,22.53
2022-08-03T05:31:00.727Z,22.52
2022-08-03T05:33:27.184Z,22.53
2022-08-03T05:36:02.728Z,22.53
2022-08-03T05:38:34.744Z,22.53
2022-08-03T05:41:21.785Z,22.52
2022-08-03T05:43:48.681Z,22.52
2022-08-03T05:46:15.077Z,22.53
2022-08-03T05:48:42.219Z,22.53
2022-08-03T05:51:11.457Z,22.52
2022-08-03T05:53:38.843Z,22.54
2022-08-03T05:56:14.730Z,22.54
2022-08-03T05:58:45.512Z,22.55
2022-08-03T06:01:12.135Z,22.54
2022-08-03T06:03:38.563Z,22.56
2022-08-03T06:06:05.014Z,22.54
2022-08-03T06:08:31.423Z,22.56
2022-08-03T06:10:57.827Z,22.56
2022-08-03T06:13:24.250Z,22.58
2022-08-03T06:15:50.673Z,22.63
2022-08-03T06:18:17.100Z,22.65
2022-08-03T06:20:43.509Z,22.67
2022-08-03T06:23:16.003Z,22.69
2022-08-03T06:25:44.095Z,22.71
2022-08-03T06:28:18.956Z,22.72
2022-08-03T06:30:55.413Z,22.73
2022-08-03T06:33:21.827Z,22.73
2022-08-03T06:35:48.295Z,22.74
2022-08-03T06:38:14.778Z,22.79
2022-08-03T06:40:41.236Z,22.80
2022-08-03T06:43:12.342Z,22.81
2022-08-03T06:45:39.327Z,22.82
2022-08-03T06:48:07.195Z,22.85
2022-08-03T06:50:34.344Z,22.87
2022-08-03T06:53:00.921Z,22.85
2022-08-03T06:55:27.478Z,22.83
2022-08-03T06:57:53.984Z,22.85
2022-08-03T07:00:20.452Z,22.87
2022-08-03T07:02:47.478Z,22.89
2022-08-03T07:05:14.322Z,22.91
2022-08-03T07:07:41.093Z,22.92
2022-08-03T07:10:08.130Z,22.90
2022-08-03T07:12:35.036Z,22.93
2022-08-03T07:15:03.282Z,22.95
2022-08-03T07:17:30.979Z,22.95
2022-08-03T07:19:57.849Z,22.93
2022-08-03T07:22:24.255Z,22.95
2022-08-03T07:24:50.816Z,22.94
2022-08-03T07:27:17.210Z,22.94
2022-08-03T07:29:43.828Z,22.92
2022-08-03T07:32:10.441Z,22.92
2022-08-03T07:34:36.941Z,22.91
2022-08-03T07:37:03.373Z,22.92
2022-08-03T07:39:29.987Z,22.92
2022-08-03T07:41:56.374Z,22.92
2022-08-03T07:44:22.788Z,22.95
2022-08-03T07:46:50.707Z,22.96
2022-08-03T07:49:18.466Z,22.96
2022-08-03T07:51:44.934Z,22.98
2022-08-03T07:54:11.326Z,22.98
2022-08-03T07:56:39.030Z,23.00
2022-08-03T07:59:05.836Z,23.01
2022-08-03T08:01:35.850Z,23.03
2022-08-03T08:04:02.360Z,23.05
2022-08-03T08:06:28.777Z,23.05
2022-08-03T08:08:59.410Z,23.06
2022-08-03T08:11:25.794Z,23.07
2022-08-03T08:13:52.166Z,23.09
2022-08-03T08:16:18.608Z,23.09
2022-08-03T08:18:45.014Z,23.11
2022-08-03T08:21:11.372Z,23.14
2022-08-03T08:23:43.448Z,23.16
2022-08-03T08:26:11.875Z,23.17
2022-08-03T08:28:38.435Z,23.15
2022-08-03T08:31:05.035Z,23.11
2022-08-03T08:36:17.924Z,23.07
2022-08-03T08:38:45.146Z,23.10
2022-08-03T08:41:12.803Z,23.11
2022-08-03T08:43:39.293Z,23.15
2022-08-03T08:46:08.443Z,23.13
2022-08-03T08:48:39.559Z,23.19
2022-08-03T08:51:09.844Z,23.20
2022-08-03T08:53:37.588Z,23.19
2022-08-03T08:56:05.723Z,23.17
2022-08-03T08:58:37.725Z,23.12
2022-08-03T09:01:05.478Z,23.14
2022-08-03T09:03:33.444Z,23.20
2022-08-03T09:06:00.922Z,23.23
2022-08-03T09:08:27.477Z,23.25
2022-08-03T09:10:53.927Z,23.31
2022-08-03T09:13:20.884Z,23.30
2022-08-03T09:16:00.689Z,23.33
2022-08-03T09:18:32.607Z,23.32
2022-08-03T09:21:31.176Z,23.29
2022-08-03T09:24:02.941Z,23.29
2022-08-03T09:26:31.248Z,23.32
2022-08-03T09:29:04.665Z,23.36
2022-08-03T09:31:39.712Z,23.35
2022-08-03T09:34:14.601Z,23.40
2022-08-03T09:36:48.046Z,23.36
2022-08-03T09:39:18.180Z,23.31
2022-08-03T09:41:46.254Z,23.30
2022-08-03T09:44:24.096Z,23.34
2022-08-03T09:46:53.316Z,23.38
2022-08-03T09:49:19.875Z,23.44
2022-08-03T09:52:33.519Z,23.44
2022-08-03T09:54:34.429Z,23.44
2022-08-03T09:57:01.220Z,23.56
2022-08-03T09:59:28.724Z,23.51
2022-08-03T10:01:55.870Z,23.47
2022-08-03T10:04:22.395Z,23.49
2022-08-03T10:07:05.555Z,23.51
2022-08-03T10:09:32.297Z,23.49
2022-08-03T10:12:07.012Z,23.59
2022-08-03T10:14:33.845Z,23.76
2022-08-03T10:17:00.305Z,23.81
2022-08-03T10:19:26.756Z,23.72
2022-08-03T10:21:57.964Z,23.61
2022-08-03T10:24:27.143Z,23.56
2022-08-03T10:26:57.481Z,23.53
2022-08-03T10:29:25.253Z,23.55
2022-08-03T10:31:57.834Z,23.60
2022-08-03T10:34:27.013Z,23.70
2022-08-03T10:36:56.294Z,23.93
2022-08-03T10:39:24.132Z,23.95
2022-08-03T10:41:51.125Z,23.86
2022-08-03T10:44:20.390Z,23.97
2022-08-03T10:46:50.948Z,24.02
2022-08-03T10:49:33.909Z,23.88
2022-08-03T10:52:07.586Z,23.75
2022-08-03T10:54:59.904Z,23.72
2022-08-03T10:57:46.421Z,23.72
2022-08-03T11:00:19.675Z,23.73
2022-08-03T11:03:18.636Z,23.72
2022-08-03T11:05:53.763Z,23.71
2022-08-03T11:08:23.318Z,23.70
2022-08-03T11:10:50.670Z,23.73
2022-08-03T11:13:19.194Z,23.72
2022-08-03T11:15:46.695Z,23.69
2022-08-03T11:18:14.090Z,23.77
2022-08-03T11:20:44.103Z,23.83
2022-08-03T11:23:10.664Z,23.80
2022-08-03T11:25:55.883Z,23.81
2022-08-03T11:28:25.997Z,23.77
2022-08-03T11:30:53.378Z,23.93
2022-08-03T11:33:29.476Z,23.92
2022-08-03T11:36:02.281Z,23.85
2022-08-03T11:38:28.707Z,23.78
2022-08-03T11:40:55.086Z,23.82
2022-08-03T11:43:31.376Z,23.79
2022-08-03T11:46:02.603Z,23.75
2022-08-03T11:48:39.325Z,23.82
2022-08-03T11:51:07.048Z,23.84
2022-08-03T11:53:33.755Z,23.91
2022-08-03T11:56:12.780Z,23.87
2022-08-03T11:59:00.775Z,23.89
2022-08-03T12:01:32.708Z,23.89
2022-08-03T12:04:04.643Z,23.82
2022-08-03T12:06:31.046Z,23.80
2022-08-03T12:08:57.486Z,23.84
2022-08-03T12:11:23.879Z,23.80
2022-08-03T12:14:44.750Z,23.75
2022-08-03T12:16:37.705Z,23.84
2022-08-03T12:19:05.321Z,23.90
2022-08-03T12:21:32.293Z,23.89
2022-08-03T12:24:05.087Z,23.85
2022-08-03T12:26:43.715Z,23.81
2022-08-03T12:29:17.556Z,23.78
2022-08-03T12:31:44.006Z,23.75
2022-08-03T12:34:11.376Z,23.81
2022-08-03T12:36:39.084Z,23.97
2022-08-03T12:39:07.191Z,24.11
2022-08-03T12:41:35.411Z,24.34
2022-08-03T12:44:05.933Z,24.24
2022-08-03T12:46:36.245Z,24.13
2022-08-03T12:49:04.239Z,24.20
2022-08-03T12:51:32.294Z,24.24
2022-08-03T12:53:59.144Z,24.14
2022-08-03T12:56:25.777Z,24.07
2022-08-03T12:58:53.120Z,24.10
2022-08-03T13:01:19.952Z,24.16
2022-08-03T13:03:52.699Z,24.19
2022-08-03T13:06:23.783Z,24.11
2022-08-03T13:09:01.160Z,24.13
2022-08-03T13:11:55.412Z,24.10
2022-08-03T13:14:19.580Z,24.04
2022-08-03T13:16:46.772Z,23.99
2022-08-03T13:19:15.411Z,23.96
2022-08-03T13:21:53.783Z,23.93
2022-08-03T13:24:29.594Z,23.94
2022-08-03T13:26:56.994Z,23.91
2022-08-03T13:29:23.437Z,23.89
2022-08-03T13:31:51.128Z,23.89
2022-08-03T13:34:22.264Z,23.88
2022-08-03T13:40:00.375Z,23.88
2022-08-03T13:42:22.685Z,23.88
2022-08-03T13:44:49.180Z,23.88
2022-08-03T13:47:15.587Z,23.88
2022-08-03T13:49:42.117Z,23.87
2022-08-03T13:52:21.099Z,23.88
2022-08-03T13:54:47.646Z,23.89
2022-08-03T13:58:03.079Z,23.88
2022-08-03T14:00:00.581Z,23.88
2022-08-03T14:02:27.061Z,23.89
2022-08-03T14:04:54.730Z,23.88
2022-08-03T14:07:21.477Z,23.89
2022-08-03T14:09:48.104Z,23.87
2022-08-03T14:12:14.594Z,23.89
2022-08-03T14:14:41.508Z,23.90
2022-08-03T14:17:07.935Z,23.90
2022-08-03T14:19:34.338Z,23.90
2022-08-03T14:22:19.370Z,23.91
2022-08-03T14:24:45.727Z,23.91
2022-08-03T14:27:12.177Z,23.91
2022-08-03T14:29:38.586Z,23.91
2022-08-03T14:32:09.860Z,23.92
2022-08-03T14:34:38.692Z,23.92
2022-08-03T14:37:05.143Z,23.91
2022-08-03T14:39:58.314Z,23.90
2022-08-03T14:42:18.096Z,23.91
2022-08-03T14:44:44.573Z,23.92
2022-08-03T14:47:11.055Z,23.92
2022-08-03T14:50:38.460Z,23.92
2022-08-03T14:52:24.438Z,23.93
2022-08-03T14:54:50.882Z,23.93
2022-08-03T14:57:17.486Z,23.92
2022-08-03T14:59:55.747Z,23.92
2022-08-03T15:02:24.289Z,23.91
2022-08-03T15:04:51.014Z,23.91
2022-08-03T15:07:17.489Z,23.91
2022-08-03T15:09:44.023Z,23.90
2022-08-03T15:12:10.443Z,23.91
2022-08-03T15:14:37.806Z,23.91
2022-08-03T15:17:04.892Z,23.90
2022-08-03T15:20:03.797Z,23.92
2022-08-03T15:22:20.676Z,23.92
2022-08-03T15:24:51.615Z,23.94
2022-08-03T15:27:18.159Z,23.93
2022-08-03T15:30:06.771Z,23.93
2022-08-03T15:32:31.134Z,23.94
2022-08-03T15:34:57.596Z,23.94
2022-08-03T15:37:25.792Z,23.94
2022-08-03T15:40:00.069Z,23.95
2022-08-03T15:42:30.629Z,23.95
2022-08-03T15:44:57.074Z,23.94
2022-08-03T15:47:23.489Z,23.94
2022-08-03T15:49:49.893Z,23.94
2022-08-03T15:52:16.299Z,23.93
2022-08-03T15:54:42.831Z,23.94
2022-08-03T15:57:09.262Z,23.92
2022-08-03T15:59:35.638Z,23.92
2022-08-03T16:02:02.219Z,23.93
2022-08-03T16:04:28.725Z,23.92
2022-08-03T16:06:55.153Z,23.92
2022-08-03T16:09:24.218Z,23.91
2022-08-03T16:12:15.409Z,23.92
2022-08-03T16:14:52.004Z,23.90
2022-08-03T16:17:20.030Z,23.91
2022-08-03T16:19:46.667Z,23.91
2022-08-03T16:22:14.397Z,23.91
2022-08-03T16:24:41.107Z,23.90
2022-08-03T16:27:15.550Z,23.90
2022-08-03T16:29:53.892Z,23.90
2022-08-03T16:32:20.356Z,23.90
2022-08-03T16:34:47.847Z,23.89
2022-08-03T16:37:37.035Z,23.89
2022-08-03T16:40:00.706Z,23.89
2022-08-03T16:42:27.209Z,23.89
2022-08-03T16:44:53.600Z,23.89
2022-08-03T16:47:22.247Z,23.89
2022-08-03T16:49:52.994Z,23.88
2022-08-03T16:52:22.000Z,23.86
2022-08-03T16:54:53.054Z,23.85
2022-08-03T16:57:58.440Z,23.84
2022-08-03T17:00:11.008Z,23.85
2022-08-03T17:02:37.945Z,23.83
2022-08-03T17:05:04.904Z,23.81
2022-08-03T17:07:31.317Z,23.80
2022-08-03T17:09:57.994Z,23.80
2022-08-03T17:12:27.089Z,23.78
2022-08-03T17:14:53.922Z,23.77
2022-08-03T17:17:23.346Z,23.77
2022-08-03T17:19:54.233Z,23.76
2022-08-03T17:22:24.685Z,23.75
2022-08-03T17:24:52.256Z,23.73
2022-08-03T17:28:41.883Z,23.73
2022-08-03T17:30:07.573Z,23.72
2022-08-03T17:32:37.128Z,23.73
2022-08-03T17:35:09.727Z,23.71
2022-08-03T17:37:57.869Z,23.71
2022-08-03T17:40:23.705Z,23.70
2022-08-03T17:42:50.716Z,23.69
2022-08-03T17:45:17.574Z,23.69
2022-08-03T17:47:45.217Z,23.69
2022-08-03T17:50:26.064Z,23.68
2022-08-03T17:53:01.922Z,23.67
2022-08-03T17:55:56.992Z,23.67
2022-08-03T17:58:41.517Z,23.65
2022-08-03T18:02:00.276Z,23.65
2022-08-03T18:04:21.168Z,23.64
2022-08-03T18:06:57.541Z,23.63
2022-08-03T18:10:04.077Z,23.62
2022-08-03T18:12:22.674Z,23.62
2022-08-03T18:14:57.606Z,23.61
2022-08-03T18:17:54.696Z,23.60
2022-08-03T18:20:32.671Z,23.60
2022-08-03T18:23:04.888Z,23.58
2022-08-03T18:25:43.137Z,23.58
2022-08-03T18:28:16.062Z,23.57
2022-08-03T18:34:18.022Z,23.57
2022-08-03T18:36:22.090Z,23.55
2022-08-03T18:38:56.590Z,23.56
2022-08-03T18:41:33.178Z,23.54
2022-08-03T18:44:08.967Z,23.52
2022-08-03T18:47:06.909Z,23.52
2022-08-03T18:49:49.333Z,23.51
2022-08-03T18:52:17.384Z,23.51
2022-08-03T18:55:02.459Z,23.52
2022-08-03T18:57:40.346Z,23.49
2022-08-03T19:00:10.494Z,23.50
2022-08-03T19:02:41.558Z,23.49
2022-08-03T19:05:20.105Z,23.50
2022-08-03T19:08:08.153Z,23.48
2022-08-03T19:10:42.258Z,23.47
2022-08-03T19:13:31.016Z,23.47
2022-08-03T19:16:04.646Z,23.46
2022-08-03T19:18:36.186Z,23.45
2022-08-03T19:21:03.489Z,23.44
2022-08-03T19:23:44.568Z,23.45
2022-08-03T19:26:30.006Z,23.44
2022-08-03T19:28:58.188Z,23.44
2022-08-03T19:31:25.272Z,23.43
2022-08-03T19:33:58.761Z,23.43
2022-08-03T19:39:14.409Z,23.42
2022-08-03T19:41:51.325Z,23.42
2022-08-03T19:44:22.925Z,23.41
2022-08-03T19:46:54.177Z,23.40
2022-08-03T19:49:23.729Z,23.40
2022-08-03T19:52:10.506Z,23.40
2022-08-03T19:54:45.817Z,23.39
2022-08-03T19:57:22.473Z,23.40
2022-08-03T19:59:49.902Z,23.38
2022-08-03T20:02:25.560Z,23.38
2022-08-03T20:04:54.583Z,23.39
2022-08-03T20:07:22.896Z,23.37
2022-08-03T20:09:54.505Z,23.37
2022-08-03T20:12:28.329Z,23.36
2022-08-03T20:14:58.598Z,23.36
2022-08-03T20:17:54.849Z,23.37
2022-08-03T20:20:12.658Z,23.35
2022-08-03T20:22:43.131Z,23.34
2022-08-03T20:25:12.787Z,23.35
2022-08-03T20:28:06.834Z,23.35
2022-08-03T20:30:33.796Z,23.34
2022-08-03T20:33:00.216Z,23.34
2022-08-03T20:35:27.001Z,23.33
2022-08-03T20:37:54.378Z,23.33
2022-08-03T20:40:22.138Z,23.32
2022-08-03T20:42:55.187Z,23.32
2022-08-03T20:46:00.648Z,23.32
2022-08-03T20:48:09.478Z,23.32
2022-08-03T20:50:36.421Z,23.31
2022-08-03T20:53:03.395Z,23.32
2022-08-03T20:55:47.819Z,23.32
2022-08-03T20:58:20.229Z,23.31
2022-08-03T21:00:51.481Z,23.31
2022-08-03T21:03:18.550Z,23.30
2022-08-03T21:05:48.250Z,23.29
2022-08-03T21:08:21.045Z,23.30
2022-08-03T21:10:47.701Z,23.30
2022-08-03T21:12:58.148Z,23.57
2022-08-03T21:13:10.224Z,23.43
2022-08-03T21:13:28.660Z,23.30
2022-08-03T21:16:02.383Z,23.29
2022-08-03T21:18:44.461Z,23.29
2022-08-03T21:21:13.654Z,23.29
2022-08-03T21:23:47.948Z,23.28
2022-08-03T21:26:16.679Z,23.28
2022-08-03T21:28:43.826Z,23.26
2022-08-03T21:31:10.425Z,23.26
2022-08-03T21:33:36.823Z,23.26
2022-08-03T21:36:03.485Z,23.26
2022-08-03T21:38:30.477Z,23.26
2022-08-03T21:40:57.117Z,23.25
2022-08-03T21:43:23.534Z,23.24
2022-08-03T21:45:52.342Z,23.26
2022-08-03T21:48:19.077Z,23.25
2022-08-03T21:50:48.681Z,23.25
2022-08-03T21:53:16.103Z,23.25
2022-08-03T21:55:46.561Z,23.23
2022-08-03T21:58:16.194Z,23.24
2022-08-03T22:00:43.347Z,23.22
2022-08-03T22:03:15.364Z,23.23
2022-08-03T22:05:44.474Z,23.22
2022-08-03T22:08:12.972Z,23.22
2022-08-03T22:10:39.597Z,23.22
2022-08-03T22:13:06.202Z,23.20
2022-08-03T22:15:32.833Z,23.24
2022-08-03T22:18:03.334Z,23.20
2022-08-03T22:20:29.958Z,23.21
2022-08-03T22:22:58.571Z,23.21
2022-08-03T22:25:29.515Z,23.20
2022-08-03T22:27:57.083Z,23.20
2022-08-03T22:30:23.497Z,23.20
2022-08-03T22:32:52.814Z,23.21
2022-08-03T22:35:20.387Z,23.20
2022-08-03T22:37:49.177Z,23.20
2022-08-03T22:40:16.585Z,23.20
2022-08-03T22:42:45.637Z,23.19
2022-08-03T22:45:12.184Z,23.19
2022-08-03T22:47:58.574Z,23.18
2022-08-03T22:50:31.826Z,23.18
2022-08-03T22:52:59.420Z,23.20
2022-08-03T22:55:26.814Z,23.18
2022-08-03T22:57:56.225Z,23.18
2022-08-03T23:00:22.898Z,23.18
2022-08-03T23:02:50.879Z,23.17
2022-08-03T23:06:01.276Z,23.18
2022-08-03T23:08:08.545Z,23.17
2022-08-03T23:10:36.127Z,23.17
2022-08-03T23:13:02.721Z,23.16
2022-08-03T23:15:30.356Z,23.15
2022-08-03T23:18:03.249Z,23.16
2022-08-03T23:20:29.882Z,23.15
2022-08-03T23:23:00.392Z,23.16
2022-08-03T23:25:26.947Z,23.16
2022-08-03T23:28:05.358Z,23.15
2022-08-03T23:30:33.532Z,23.15
2022-08-03T23:33:01.277Z,23.14
2022-08-03T23:36:28.061Z,23.14
2022-08-03T23:38:36.209Z,23.14
2022-08-03T23:41:03.439Z,23.13
2022-08-03T23:43:44.939Z,23.15
2022-08-03T23:46:19.708Z,23.14
2022-08-03T23:48:46.163Z,23.13
2022-08-03T23:51:27.853Z,23.13
2022-08-03T23:54:02.087Z,23.12
2022-08-03T23:56:28.696Z,23.12
2022-08-03T23:59:01.331Z,23.11
